Time;durP1;ratioP1;P1;durP2;ratioP2;P2;SDS_P1;SDS_P2;PMS_P1;PMS_P2;Temp;Humidity;BMP_temperature;BMP_pressure;BME280_temperature;BME280_humidity;BME280_pressure;Samples;Min_cycle;Max_cycle;Signal;HPM_P1;HPM_P2
2022/02/26 00:01:35;0.00;0.00;0.62;0.00;0.00;0.62;3.20;1.13;;;21.20;24.70;;;;;;2265841;61;20365;-68
2022/02/26 00:04:20;0.00;0.00;0.62;0.00;0.00;0.62;2.23;1.10;;;21.20;24.70;;;;;;2264641;61;20404;-67
2022/02/26 00:07:04;0.00;0.00;0.62;0.00;0.00;0.62;4.10;1.23;;;21.20;24.70;;;;;;2265676;61;20420;-70
2022/02/26 00:09:49;0.00;0.00;0.62;0.00;0.00;0.62;2.00;1.00;;;21.20;24.70;;;;;;2266019;61;20356;-71
2022/02/26 00:12:34;0.00;0.00;0.62;0.00;0.00;0.62;3.23;1.37;;;21.20;24.70;;;;;;2265423;61;20364;-70
2022/02/26 00:15:21;0.00;0.00;0.62;0.00;0.00;0.62;3.30;1.53;;;21.20;24.70;;;;;;2266464;61;20388;-69
2022/02/26 00:18:05;0.00;0.00;0.62;0.00;0.00;0.62;3.10;1.20;;;21.30;24.80;;;;;;2265682;61;20729;-67
2022/02/26 00:20:50;0.00;0.00;0.62;0.00;0.00;0.62;1.97;1.10;;;21.20;24.70;;;;;;2265934;61;20395;-69
2022/02/26 00:23:35;0.00;0.00;0.62;0.00;0.00;0.62;1.97;1.03;;;21.20;24.70;;;;;;2266254;61;20427;-69
2022/02/26 00:26:22;0.00;0.00;0.62;0.00;0.00;0.62;2.57;1.13;;;21.20;24.70;;;;;;2265558;61;20392;-70
2022/02/26 00:29:06;0.00;0.00;0.62;0.00;0.00;0.62;2.53;1.27;;;21.20;24.80;;;;;;2266293;61;20353;-67
2022/02/26 00:31:53;0.00;0.00;0.62;0.00;0.00;0.62;1.93;1.10;;;21.20;24.80;;;;;;2265717;61;20388;-71
2022/02/26 00:34:37;0.00;0.00;0.62;0.00;0.00;0.62;3.00;1.40;;;21.20;24.80;;;;;;2265656;61;20453;-71
2022/02/26 00:37:22;0.00;0.00;0.62;0.00;0.00;0.62;2.10;1.20;;;21.20;24.80;;;;;;2266369;61;20705;-71
2022/02/26 00:40:08;0.00;0.00;0.62;0.00;0.00;0.62;2.93;1.10;;;21.20;24.70;;;;;;2265702;61;20433;-70
2022/02/26 00:42:53;0.00;0.00;0.62;0.00;0.00;0.62;2.40;1.37;;;21.20;24.70;;;;;;2265997;61;20384;-69
2022/02/26 00:45:37;0.00;0.00;0.62;0.00;0.00;0.62;5.00;1.93;;;21.20;24.50;;;;;;2266252;61;20414;-68
2022/02/26 00:49:46;0.00;0.00;0.62;0.00;0.00;0.62;5.30;2.13;;;21.20;24.40;;;;;;2265143;61;20384;-68
2022/02/26 00:51:27;0.00;0.00;0.62;0.00;0.00;0.62;4.30;1.77;;;21.10;24.20;;;;;;2265858;61;20364;-70
2022/02/26 00:54:12;0.00;0.00;0.62;0.00;0.00;0.62;6.07;1.90;;;21.00;24.00;;;;;;2265811;61;20407;-67
2022/02/26 00:56:57;0.00;0.00;0.62;0.00;0.00;0.62;7.97;2.27;;;21.00;24.00;;;;;;2265704;61;20422;-69
2022/02/26 00:59:41;0.00;0.00;0.62;0.00;0.00;0.62;3.83;2.30;;;21.00;24.00;;;;;;2266277;61;20357;-67
2022/02/26 01:02:26;0.00;0.00;0.62;0.00;0.00;0.62;5.37;2.07;;;21.00;24.10;;;;;;2265565;61;20384;-68
2022/02/26 01:05:13;0.00;0.00;0.62;0.00;0.00;0.62;10.40;2.63;;;20.90;24.00;;;;;;2265851;61;20817;-71
2022/02/26 01:07:57;0.00;0.00;0.62;0.00;0.00;0.62;6.83;2.60;;;20.90;24.00;;;;;;2265712;61;20532;-68
2022/02/26 01:10:42;0.00;0.00;0.62;0.00;0.00;0.62;5.07;1.97;;;20.80;23.90;;;;;;2265303;61;20356;-68
2022/02/26 01:13:27;0.00;0.00;0.62;0.00;0.00;0.62;4.07;1.70;;;20.80;23.80;;;;;;2265808;61;20644;-68
2022/02/26 01:16:12;0.00;0.00;0.62;0.00;0.00;0.62;7.13;2.03;;;20.70;23.70;;;;;;2265884;61;20400;-67
2022/02/26 01:18:56;0.00;0.00;0.62;0.00;0.00;0.62;5.30;2.73;;;20.70;23.70;;;;;;2265503;61;20701;-70
2022/02/26 01:21:43;0.00;0.00;0.62;0.00;0.00;0.62;5.63;2.43;;;20.70;23.80;;;;;;2266054;61;20360;-69
2022/02/26 01:24:28;0.00;0.00;0.62;0.00;0.00;0.62;6.13;2.20;;;20.60;23.70;;;;;;2265572;61;20612;-70
2022/02/26 01:27:12;0.00;0.00;0.62;0.00;0.00;0.62;5.03;1.87;;;20.60;23.70;;;;;;2265577;61;20388;-71
2022/02/26 01:29:57;0.00;0.00;0.62;0.00;0.00;0.62;6.37;2.10;;;20.60;23.80;;;;;;2266174;61;20396;-71
2022/02/26 01:32:42;0.00;0.00;0.62;0.00;0.00;0.62;4.90;2.63;;;20.50;23.80;;;;;;2265182;61;20409;-68
2022/02/26 01:35:27;0.00;0.00;0.62;0.00;0.00;0.62;6.57;2.47;;;20.50;23.80;;;;;;2265876;61;20356;-71
2022/02/26 01:38:13;0.00;0.00;0.62;0.00;0.00;0.62;4.20;1.90;;;20.50;23.90;;;;;;2265872;61;20349;-71
2022/02/26 01:40:57;0.00;0.00;0.62;0.00;0.00;0.62;4.90;2.17;;;20.50;23.90;;;;;;2265611;61;20368;-71
2022/02/26 01:43:42;0.00;0.00;0.62;0.00;0.00;0.62;5.47;2.03;;;20.40;23.80;;;;;;2265897;61;20381;-70
2022/02/26 01:46:27;0.00;0.00;0.62;0.00;0.00;0.62;7.27;2.37;;;20.40;23.80;;;;;;2265549;61;20400;-69
2022/02/26 01:49:12;0.00;0.00;0.62;0.00;0.00;0.62;3.50;1.60;;;20.40;23.80;;;;;;2265579;61;20388;-70
2022/02/26 01:51:56;0.00;0.00;0.62;0.00;0.00;0.62;4.87;2.13;;;20.40;23.80;;;;;;2265849;61;20360;-70
2022/02/26 01:54:44;0.00;0.00;0.62;0.00;0.00;0.62;7.00;2.60;;;20.40;23.80;;;;;;2265343;61;20411;-70
2022/02/26 01:57:28;0.00;0.00;0.62;0.00;0.00;0.62;6.40;2.10;;;20.40;23.80;;;;;;2265837;61;20618;-69
2022/02/26 02:00:14;0.00;0.00;0.62;0.00;0.00;0.62;4.67;2.40;;;20.30;23.80;;;;;;2266083;61;20353;-71
2022/02/26 02:02:59;0.00;0.00;0.62;0.00;0.00;0.62;4.20;2.10;;;20.30;23.80;;;;;;2265318;61;20384;-71
2022/02/26 02:05:43;0.00;0.00;0.62;0.00;0.00;0.62;5.30;2.23;;;20.30;23.80;;;;;;2265912;61;20457;-71
2022/02/26 02:08:28;0.00;0.00;0.62;0.00;0.00;0.62;6.47;2.20;;;20.30;23.80;;;;;;2265756;61;20415;-70
2022/02/26 02:10:56;0.00;0.00;0.62;0.00;0.00;0.62;5.67;2.23;;;20.30;23.80;;;;;;2265109;61;20541;-69
2022/02/26 02:13:24;0.00;0.00;0.62;0.00;0.00;0.62;4.87;2.00;;;20.20;23.70;;;;;;2265943;61;20738;-69
2022/02/26 02:15:54;0.00;0.00;0.62;0.00;0.00;0.62;7.53;3.10;;;20.20;23.70;;;;;;2265679;61;20350;-72
2022/02/26 02:18:20;0.00;0.00;0.62;0.00;0.00;0.62;6.20;2.10;;;20.20;23.70;;;;;;2265269;61;20335;-70
2022/02/26 02:20:46;0.00;0.00;0.62;0.00;0.00;0.62;6.23;2.17;;;20.20;23.60;;;;;;2266015;61;20721;-70
2022/02/26 02:23:14;0.00;0.00;0.62;0.00;0.00;0.62;4.17;2.30;;;20.10;23.60;;;;;;2265411;61;20599;-71
2022/02/26 02:25:40;0.00;0.00;0.62;0.00;0.00;0.62;5.17;2.23;;;20.10;23.60;;;;;;2265362;61;20346;-71
2022/02/26 02:28:09;0.00;0.00;0.62;0.00;0.00;0.62;6.60;2.00;;;20.10;23.70;;;;;;2265878;61;20374;-70
2022/02/26 02:30:35;0.00;0.00;0.62;0.00;0.00;0.62;3.90;1.77;;;20.10;23.60;;;;;;2265440;61;20718;-69
2022/02/26 02:33:02;0.00;0.00;0.62;0.00;0.00;0.62;5.33;2.33;;;20.10;23.70;;;;;;2265121;61;20374;-69
2022/02/26 02:35:47;0.00;0.00;0.62;0.00;0.00;0.62;4.97;2.00;;;20.10;23.60;;;;;;2265386;61;20706;-69
2022/02/26 02:38:33;0.00;0.00;0.62;0.00;0.00;0.62;5.33;2.17;;;20.00;23.60;;;;;;2265318;61;20380;-67
2022/02/26 02:41:19;0.00;0.00;0.62;0.00;0.00;0.62;7.30;2.57;;;20.00;23.70;;;;;;2264972;61;20552;-72
2022/02/26 02:44:06;0.00;0.00;0.62;0.00;0.00;0.62;4.27;1.80;;;20.00;23.70;;;;;;2265804;61;20506;-69
2022/02/26 02:46:50;0.00;0.00;0.62;0.00;0.00;0.62;6.83;2.20;;;20.00;23.70;;;;;;2265105;61;20622;-71
2022/02/26 02:49:36;0.00;0.00;0.62;0.00;0.00;0.62;4.73;2.23;;;20.00;23.70;;;;;;2265707;61;20732;-69
2022/02/26 02:52:21;0.00;0.00;0.62;0.00;0.00;0.62;5.33;2.40;;;20.00;23.70;;;;;;2265328;61;20361;-68
2022/02/26 02:55:09;0.00;0.00;0.62;0.00;0.00;0.62;3.57;2.10;;;19.90;23.60;;;;;;2265168;61;20365;-70
2022/02/26 02:57:55;0.00;0.00;0.62;0.00;0.00;0.62;4.00;2.10;;;19.90;23.70;;;;;;2266154;61;20587;-70
2022/02/26 03:00:39;0.00;0.00;0.62;0.00;0.00;0.62;6.50;2.80;;;19.90;23.70;;;;;;2265134;61;20364;-71
2022/02/26 03:03:25;0.00;0.00;0.62;0.00;0.00;0.62;9.20;2.53;;;19.90;23.70;;;;;;2265415;61;20384;-70
2022/02/26 03:06:10;0.00;0.00;0.62;0.00;0.00;0.62;5.70;2.30;;;19.90;23.70;;;;;;2265923;61;20390;-70
2022/02/26 03:08:55;0.00;0.00;0.62;0.00;0.00;0.62;5.00;1.93;;;19.90;23.70;;;;;;2265066;61;20392;-69
2022/02/26 03:11:41;0.00;0.00;0.62;0.00;0.00;0.62;5.30;2.13;;;19.90;24.30;;;;;;2265451;61;20391;-68
2022/02/26 03:14:26;0.00;0.00;0.62;0.00;0.00;0.62;6.00;2.10;;;19.80;23.70;;;;;;2265444;61;20741;-72
2022/02/26 03:17:10;0.00;0.00;0.62;0.00;0.00;0.62;4.00;1.90;;;19.80;24.20;;;;;;2265287;61;20354;-67
2022/02/26 03:19:59;0.00;0.00;0.62;0.00;0.00;0.62;6.50;2.30;;;19.80;23.70;;;;;;2265790;61;20393;-71
2022/02/26 03:22:44;0.00;0.00;0.62;0.00;0.00;0.62;4.37;2.30;;;19.80;23.80;;;;;;2264887;61;20788;-69
2022/02/26 03:25:29;0.00;0.00;0.62;0.00;0.00;0.62;5.00;2.43;;;19.80;23.80;;;;;;2265329;61;20393;-71
2022/02/26 03:28:15;0.00;0.00;0.62;0.00;0.00;0.62;5.60;2.73;;;19.80;23.80;;;;;;2265798;61;20864;-70
2022/02/26 03:31:00;0.00;0.00;0.62;0.00;0.00;0.62;4.90;2.17;;;19.80;23.80;;;;;;2265042;61;20369;-72
2022/02/26 03:33:45;0.00;0.00;0.62;0.00;0.00;0.62;6.33;2.30;;;19.80;23.80;;;;;;2265490;61;20384;-70
2022/02/26 03:36:34;0.00;0.00;0.62;0.00;0.00;0.62;6.53;2.23;;;19.70;23.70;;;;;;2265442;61;20356;-70
2022/02/26 03:39:19;0.00;0.00;0.62;0.00;0.00;0.62;5.70;2.30;;;19.70;23.70;;;;;;2265255;61;20369;-70
2022/02/26 03:42:06;0.00;0.00;0.62;0.00;0.00;0.62;5.70;1.83;;;19.70;23.70;;;;;;2265279;61;20360;-70
2022/02/26 03:44:52;0.00;0.00;0.62;0.00;0.00;0.62;4.23;2.03;;;19.70;23.70;;;;;;2265168;61;20361;-70
2022/02/26 03:47:37;0.00;0.00;0.62;0.00;0.00;0.62;4.17;2.23;;;19.70;23.70;;;;;;2265116;61;20459;-69
2022/02/26 03:50:22;0.00;0.00;0.62;0.00;0.00;0.62;4.00;2.03;;;19.70;23.80;;;;;;2265793;61;20406;-70
2022/02/26 03:53:08;0.00;0.00;0.62;0.00;0.00;0.62;6.43;2.30;;;19.70;23.80;;;;;;2265137;61;20662;-70
2022/02/26 03:55:53;0.00;0.00;0.62;0.00;0.00;0.62;4.10;2.30;;;19.70;23.70;;;;;;2265341;61;20365;-71
2022/02/26 03:58:38;0.00;0.00;0.62;0.00;0.00;0.62;5.83;2.07;;;19.70;23.70;;;;;;2265672;61;20626;-72
2022/02/26 04:01:24;0.00;0.00;0.62;0.00;0.00;0.62;5.17;2.20;;;19.70;23.70;;;;;;2264976;61;20431;-69
2022/02/26 04:04:09;0.00;0.00;0.62;0.00;0.00;0.62;4.63;1.70;;;19.70;23.70;;;;;;2265452;61;20469;-69
2022/02/26 04:06:55;0.00;0.00;0.62;0.00;0.00;0.62;5.50;2.60;;;19.60;23.70;;;;;;2265414;61;20395;-71
2022/02/26 04:09:40;0.00;0.00;0.62;0.00;0.00;0.62;5.97;2.03;;;19.60;23.70;;;;;;2265062;61;20360;-69
2022/02/26 04:12:25;0.00;0.00;0.62;0.00;0.00;0.62;5.00;2.57;;;19.60;23.70;;;;;;2265340;61;20365;-68
2022/02/26 04:15:10;0.00;0.00;0.62;0.00;0.00;0.62;4.37;2.33;;;19.60;23.70;;;;;;2264987;61;20732;-69
2022/02/26 04:17:56;0.00;0.00;0.62;0.00;0.00;0.62;4.90;2.10;;;19.60;23.70;;;;;;2265201;61;20697;-70
2022/02/26 04:20:40;0.00;0.00;0.62;0.00;0.00;0.62;3.93;1.83;;;19.60;23.70;;;;;;2265689;61;20384;-69
2022/02/26 04:23:25;0.00;0.00;0.62;0.00;0.00;0.62;4.43;2.60;;;19.60;23.80;;;;;;2264887;61;20392;-70
2022/02/26 04:26:10;0.00;0.00;0.62;0.00;0.00;0.62;3.83;1.90;;;19.60;23.80;;;;;;2265469;61;20416;-69
2022/02/26 04:28:56;0.00;0.00;0.62;0.00;0.00;0.62;4.87;2.33;;;19.60;23.70;;;;;;2265407;61;20469;-71
2022/02/26 04:31:40;0.00;0.00;0.62;0.00;0.00;0.62;4.37;2.13;;;19.60;23.80;;;;;;2265033;61;20403;-70
2022/02/26 04:34:26;0.00;0.00;0.62;0.00;0.00;0.62;4.43;2.67;;;19.60;23.80;;;;;;2265404;61;20717;-72
2022/02/26 04:37:11;0.00;0.00;0.62;0.00;0.00;0.62;4.27;1.97;;;19.60;23.80;;;;;;2264905;61;20364;-71
2022/02/26 04:39:55;0.00;0.00;0.62;0.00;0.00;0.62;5.47;2.47;;;19.60;24.30;;;;;;2265200;61;20383;-70
2022/02/26 04:42:42;0.00;0.00;0.62;0.00;0.00;0.62;7.87;2.83;;;19.50;23.60;;;;;;2265485;61;20445;-70
2022/02/26 04:45:26;0.00;0.00;0.62;0.00;0.00;0.62;4.20;1.90;;;19.50;23.70;;;;;;2264734;61;20395;-70
2022/02/26 04:48:10;0.00;0.00;0.62;0.00;0.00;0.62;6.40;2.30;;;19.50;23.70;;;;;;2265274;61;20449;-71
2022/02/26 04:50:56;0.00;0.00;0.62;0.00;0.00;0.62;3.53;2.03;;;19.50;23.70;;;;;;2265216;61;20373;-69
2022/02/26 04:53:41;0.00;0.00;0.62;0.00;0.00;0.62;2.97;1.60;;;19.50;23.70;;;;;;2265237;61;20388;-72
2022/02/26 04:56:26;0.00;0.00;0.62;0.00;0.00;0.62;3.40;1.80;;;19.50;23.80;;;;;;2265877;61;20578;-68
2022/02/26 04:59:10;0.00;0.00;0.62;0.00;0.00;0.62;4.87;2.30;;;19.50;23.80;;;;;;2265202;61;20446;-71
2022/02/26 05:01:55;0.00;0.00;0.62;0.00;0.00;0.62;2.80;1.67;;;19.50;23.80;;;;;;2265697;61;20764;-69
2022/02/26 05:04:39;0.00;0.00;0.62;0.00;0.00;0.62;6.77;2.57;;;19.50;23.80;;;;;;2266328;61;20357;-69
2022/02/26 05:07:25;0.00;0.00;0.62;0.00;0.00;0.62;5.57;2.80;;;19.50;23.80;;;;;;2265302;61;20472;-69
2022/02/26 05:10:10;0.00;0.00;0.62;0.00;0.00;0.62;7.70;2.70;;;19.50;23.80;;;;;;2265931;61;20362;-69
2022/02/26 05:12:55;0.00;0.00;0.62;0.00;0.00;0.62;5.47;2.23;;;19.50;23.80;;;;;;2265561;61;20454;-69
2022/02/26 05:15:39;0.00;0.00;0.62;0.00;0.00;0.62;6.90;2.57;;;19.50;23.80;;;;;;2265514;61;20721;-70
2022/02/26 05:18:24;0.00;0.00;0.62;0.00;0.00;0.62;2.57;1.70;;;19.50;23.80;;;;;;2266218;61;20360;-71
2022/02/26 05:21:08;0.00;0.00;0.62;0.00;0.00;0.62;4.53;2.00;;;19.40;23.80;;;;;;2265599;61;20775;-70
2022/02/26 05:23:54;0.00;0.00;0.62;0.00;0.00;0.62;5.00;1.67;;;19.50;23.90;;;;;;2265532;61;20420;-71
2022/02/26 05:26:39;0.00;0.00;0.62;0.00;0.00;0.62;3.57;1.83;;;19.50;23.90;;;;;;2266106;61;20360;-70
2022/02/26 05:29:23;0.00;0.00;0.62;0.00;0.00;0.62;4.63;2.33;;;19.50;23.80;;;;;;2265654;61;20381;-69
2022/02/26 05:32:09;0.00;0.00;0.62;0.00;0.00;0.62;4.80;2.00;;;19.40;24.30;;;;;;2265693;61;20713;-70
2022/02/26 05:34:53;0.00;0.00;0.62;0.00;0.00;0.62;8.37;2.67;;;19.40;23.80;;;;;;2265758;61;20353;-70
2022/02/26 05:37:38;0.00;0.00;0.62;0.00;0.00;0.62;5.10;1.90;;;19.40;23.80;;;;;;2265442;61;20352;-70
2022/02/26 05:40:24;0.00;0.00;0.62;0.00;0.00;0.62;4.03;2.10;;;19.40;23.80;;;;;;2266020;61;20353;-69
2022/02/26 05:43:08;0.00;0.00;0.62;0.00;0.00;0.62;6.67;2.27;;;19.40;23.80;;;;;;2265702;61;20756;-72
2022/02/26 05:45:52;0.00;0.00;0.62;0.00;0.00;0.62;4.90;1.97;;;19.40;23.80;;;;;;2265251;61;20436;-71
2022/02/26 05:48:37;0.00;0.00;0.62;0.00;0.00;0.62;7.67;2.47;;;19.40;23.80;;;;;;2266051;61;20458;-69
2022/02/26 05:51:21;0.00;0.00;0.62;0.00;0.00;0.62;4.47;2.20;;;19.40;23.80;;;;;;2265539;61;20361;-70
2022/02/26 05:54:06;0.00;0.00;0.62;0.00;0.00;0.62;5.60;2.37;;;19.40;23.80;;;;;;2265851;61;20376;-69
2022/02/26 05:56:52;0.00;0.00;0.62;0.00;0.00;0.62;4.60;2.40;;;19.40;23.80;;;;;;2266161;61;20353;-71
2022/02/26 05:59:37;0.00;0.00;0.62;0.00;0.00;0.62;3.23;1.50;;;19.40;23.80;;;;;;2265592;61;20415;-68
2022/02/26 06:02:21;0.00;0.00;0.62;0.00;0.00;0.62;5.27;2.07;;;19.40;23.80;;;;;;2265743;61;20369;-71
2022/02/26 06:05:06;0.00;0.00;0.62;0.00;0.00;0.62;5.90;2.20;;;19.40;23.80;;;;;;2265762;61;20377;-70
2022/02/26 06:07:51;0.00;0.00;0.62;0.00;0.00;0.62;4.30;2.00;;;19.40;23.90;;;;;;2265410;61;20385;-69
2022/02/26 06:10:36;0.00;0.00;0.62;0.00;0.00;0.62;10.47;2.03;;;19.40;23.80;;;;;;2266006;61;20357;-70
2022/02/26 06:13:21;0.00;0.00;0.62;0.00;0.00;0.62;4.50;2.10;;;19.40;23.80;;;;;;2265249;61;20401;-70
2022/02/26 06:16:06;0.00;0.00;0.62;0.00;0.00;0.62;5.47;2.33;;;19.40;23.80;;;;;;2265378;61;20356;-71
2022/02/26 06:18:50;0.00;0.00;0.62;0.00;0.00;0.62;4.93;2.07;;;19.40;23.80;;;;;;2266085;61;20740;-69
2022/02/26 06:21:37;0.00;0.00;0.62;0.00;0.00;0.62;3.33;1.83;;;19.40;23.80;;;;;;2264551;61;20360;-71
2022/02/26 06:24:22;0.00;0.00;0.62;0.00;0.00;0.62;5.37;2.20;;;19.40;23.80;;;;;;2265693;61;20393;-71
2022/02/26 06:27:06;0.00;0.00;0.62;0.00;0.00;0.62;4.03;2.27;;;19.40;23.90;;;;;;2265586;61;20368;-70
2022/02/26 06:29:52;0.00;0.00;0.62;0.00;0.00;0.62;3.53;1.73;;;19.40;23.80;;;;;;2264998;61;20755;-72
2022/02/26 06:32:38;0.00;0.00;0.62;0.00;0.00;0.62;3.10;1.97;;;19.40;23.80;;;;;;2265771;61;20527;-70
2022/02/26 06:35:22;0.00;0.00;0.62;0.00;0.00;0.62;5.43;2.17;;;19.40;23.80;;;;;;2264671;61;20386;-71
2022/02/26 06:38:07;0.00;0.00;0.62;0.00;0.00;0.62;5.10;2.43;;;19.40;23.80;;;;;;2265056;61;20353;-71
2022/02/26 06:40:51;0.00;0.00;0.62;0.00;0.00;0.62;4.43;2.17;;;19.40;23.80;;;;;;2266254;61;20365;-71
2022/02/26 06:43:36;0.00;0.00;0.62;0.00;0.00;0.62;5.63;2.53;;;19.40;23.80;;;;;;2264999;61;20752;-70
2022/02/26 06:46:22;0.00;0.00;0.62;0.00;0.00;0.62;7.67;2.53;;;19.40;23.90;;;;;;2265924;61;20360;-71
2022/02/26 06:49:07;0.00;0.00;0.62;0.00;0.00;0.62;4.40;2.03;;;19.40;23.90;;;;;;2265668;61;20384;-70
2022/02/26 06:51:51;0.00;0.00;0.62;0.00;0.00;0.62;5.63;2.13;;;19.40;23.90;;;;;;2265004;61;20392;-69
2022/02/26 06:54:36;0.00;0.00;0.62;0.00;0.00;0.62;5.20;2.60;;;19.30;23.80;;;;;;2266010;61;20825;-70
2022/02/26 06:57:21;0.00;0.00;0.62;0.00;0.00;0.62;6.70;2.40;;;19.30;23.80;;;;;;2265284;61;20381;-70
2022/02/26 07:00:07;0.00;0.00;0.62;0.00;0.00;0.62;7.27;2.30;;;19.30;23.80;;;;;;2265293;61;20356;-72
2022/02/26 07:02:53;0.00;0.00;0.62;0.00;0.00;0.62;4.80;2.30;;;19.30;23.80;;;;;;2265754;61;20385;-69
2022/02/26 07:05:38;0.00;0.00;0.62;0.00;0.00;0.62;4.60;1.80;;;19.30;23.80;;;;;;2265277;61;20357;-71
2022/02/26 07:08:22;0.00;0.00;0.62;0.00;0.00;0.62;5.00;2.30;;;19.30;23.80;;;;;;2265640;61;20788;-70
2022/02/26 07:11:07;0.00;0.00;0.62;0.00;0.00;0.62;6.33;2.20;;;19.30;23.90;;;;;;2265537;61;20756;-71
2022/02/26 07:13:51;0.00;0.00;0.62;0.00;0.00;0.62;5.40;1.93;;;19.30;23.80;;;;;;2265096;61;20764;-70
2022/02/26 07:16:36;0.00;0.00;0.62;0.00;0.00;0.62;4.43;2.07;;;19.30;23.80;;;;;;2265331;61;20356;-71
2022/02/26 07:19:22;0.00;0.00;0.62;0.00;0.00;0.62;3.23;1.90;;;19.30;23.80;;;;;;2265437;61;20746;-69
2022/02/26 07:22:07;0.00;0.00;0.62;0.00;0.00;0.62;3.73;2.07;;;19.30;23.80;;;;;;2265171;61;20361;-67
2022/02/26 07:24:51;0.00;0.00;0.62;0.00;0.00;0.62;8.20;3.10;;;19.30;23.80;;;;;;2266035;61;20446;-71
2022/02/26 07:27:37;0.00;0.00;0.62;0.00;0.00;0.62;4.97;2.43;;;19.30;23.90;;;;;;2265113;61;20412;-72
2022/02/26 07:30:21;0.00;0.00;0.62;0.00;0.00;0.62;5.63;2.50;;;19.30;23.90;;;;;;2265598;61;20732;-70
2022/02/26 07:33:07;0.00;0.00;0.62;0.00;0.00;0.62;4.07;2.30;;;19.30;23.90;;;;;;2265521;61;20776;-71
2022/02/26 07:35:53;0.00;0.00;0.62;0.00;0.00;0.62;3.93;2.07;;;19.30;23.90;;;;;;2264893;61;20387;-69
2022/02/26 07:38:38;0.00;0.00;0.62;0.00;0.00;0.62;4.60;1.83;;;19.30;23.90;;;;;;2265604;61;20432;-68
2022/02/26 07:41:22;0.00;0.00;0.62;0.00;0.00;0.62;6.83;3.27;;;19.30;23.90;;;;;;2265354;61;20400;-67
2022/02/26 07:44:07;0.00;0.00;0.62;0.00;0.00;0.62;8.10;2.83;;;19.30;23.80;;;;;;2263763;61;20389;-69
2022/02/26 07:46:52;0.00;0.00;0.62;0.00;0.00;0.62;8.37;2.40;;;19.20;23.50;;;;;;2265606;61;20361;-68
2022/02/26 07:49:36;0.00;0.00;0.62;0.00;0.00;0.62;4.23;1.90;;;19.20;23.60;;;;;;2264676;61;20416;-70
2022/02/26 07:52:22;0.00;0.00;0.62;0.00;0.00;0.62;3.70;1.93;;;19.20;23.70;;;;;;2264153;61;20437;-74
2022/02/26 07:55:08;0.00;0.00;0.62;0.00;0.00;0.62;5.07;1.80;;;19.20;23.70;;;;;;2262353;61;20361;-71
2022/02/26 07:57:53;0.00;0.00;0.62;0.00;0.00;0.62;3.90;2.20;;;19.20;23.80;;;;;;2261223;61;20740;-73
2022/02/26 08:00:39;0.00;0.00;0.62;0.00;0.00;0.62;6.53;2.07;;;19.20;23.90;;;;;;2265214;61;20603;-74
2022/02/26 08:03:24;0.00;0.00;0.62;0.00;0.00;0.62;4.53;1.80;;;19.20;23.90;;;;;;2265459;61;20413;-72
2022/02/26 08:06:09;0.00;0.00;0.62;0.00;0.00;0.62;5.90;2.23;;;19.20;24.00;;;;;;2265116;61;20344;-69
2022/02/26 08:08:56;0.00;0.00;0.62;0.00;0.00;0.62;5.93;2.60;;;19.20;24.00;;;;;;2265490;61;20384;-72
2022/02/26 08:11:40;0.00;0.00;0.62;0.00;0.00;0.62;5.37;2.00;;;19.20;24.10;;;;;;2262516;61;20361;-71
2022/02/26 08:14:25;0.00;0.00;0.62;0.00;0.00;0.62;3.73;1.90;;;19.30;24.30;;;;;;2264438;61;20796;-69
2022/02/26 08:17:09;0.00;0.00;0.62;0.00;0.00;0.62;3.90;1.60;;;19.20;24.20;;;;;;2292830;61;20437;-71
2022/02/26 08:19:55;0.00;0.00;0.62;0.00;0.00;0.62;4.00;1.90;;;19.30;24.40;;;;;;2264801;61;20420;-70
2022/02/26 08:22:41;0.00;0.00;0.62;0.00;0.00;0.62;5.27;2.10;;;19.30;24.40;;;;;;2265096;61;20408;-74
2022/02/26 08:25:27;0.00;0.00;0.62;0.00;0.00;0.62;2.70;1.57;;;19.30;24.40;;;;;;2265382;61;20353;-71
2022/02/26 08:28:11;0.00;0.00;0.62;0.00;0.00;0.62;3.37;1.77;;;19.30;24.40;;;;;;2265216;61;20404;-69
2022/02/26 08:30:56;0.00;0.00;0.62;0.00;0.00;0.62;3.90;2.27;;;19.40;24.50;;;;;;2266296;61;20623;-68
2022/02/26 08:33:41;0.00;0.00;0.62;0.00;0.00;0.62;3.40;2.00;;;19.40;24.50;;;;;;2497639;53;20428;-63
2022/02/26 08:36:25;0.00;0.00;0.62;0.00;0.00;0.62;5.17;2.10;;;19.40;24.50;;;;;;2261731;61;20431;-68
2022/02/26 08:39:10;0.00;0.00;0.62;0.00;0.00;0.62;4.83;2.43;;;19.50;24.60;;;;;;2266311;61;20642;-65
2022/02/26 08:41:56;0.00;0.00;0.62;0.00;0.00;0.62;3.70;2.10;;;19.50;24.60;;;;;;2264788;61;20404;-66
2022/02/26 08:44:41;0.00;0.00;0.62;0.00;0.00;0.62;3.37;1.73;;;19.50;24.70;;;;;;2265081;61;20728;-69
2022/02/26 08:47:25;0.00;0.00;0.62;0.00;0.00;0.62;3.40;1.90;;;19.50;24.70;;;;;;2280044;61;20381;-66
2022/02/26 08:50:17;0.00;0.00;0.62;0.00;0.00;0.62;3.60;1.90;;;19.60;24.80;;;;;;2264472;61;20372;-69
2022/02/26 08:53:01;0.00;0.00;0.62;0.00;0.00;0.62;3.20;1.63;;;19.60;24.80;;;;;;2263702;61;20599;-66
2022/02/26 08:55:46;0.00;0.00;0.62;0.00;0.00;0.62;3.50;1.77;;;19.60;24.80;;;;;;2261487;61;20358;-66
2022/02/26 08:58:32;0.00;0.00;0.62;0.00;0.00;0.62;3.10;1.87;;;19.60;24.90;;;;;;2260250;61;20471;-67
2022/02/26 09:01:17;0.00;0.00;0.62;0.00;0.00;0.62;3.63;1.60;;;19.70;24.90;;;;;;2265844;61;20364;-66
2022/02/26 09:04:02;0.00;0.00;0.62;0.00;0.00;0.62;2.73;1.80;;;19.70;25.00;;;;;;2265418;61;20419;-67
2022/02/26 09:06:47;0.00;0.00;0.62;0.00;0.00;0.62;2.77;1.70;;;19.70;25.00;;;;;;2265821;61;20582;-69
2022/02/26 09:09:32;0.00;0.00;0.62;0.00;0.00;0.62;2.67;1.70;;;19.70;24.90;;;;;;2265779;61;20388;-67
2022/02/26 09:12:16;0.00;0.00;0.62;0.00;0.00;0.62;3.50;2.10;;;19.80;25.00;;;;;;2264923;61;20425;-64
2022/02/26 09:15:04;0.00;0.00;0.62;0.00;0.00;0.62;3.50;1.60;;;19.80;25.00;;;;;;2265876;61;20586;-66
2022/02/26 09:17:48;0.00;0.00;0.62;0.00;0.00;0.62;2.80;1.70;;;19.90;25.10;;;;;;2262244;61;20710;-68
2022/02/26 09:20:33;0.00;0.00;0.62;0.00;0.00;0.62;3.40;1.93;;;19.90;25.10;;;;;;2261482;61;20413;-67
2022/02/26 09:23:17;0.00;0.00;0.62;0.00;0.00;0.62;2.60;1.63;;;19.90;25.10;;;;;;2263598;61;20647;-67
2022/02/26 09:26:04;0.00;0.00;0.62;0.00;0.00;0.62;3.73;1.63;;;20.00;25.20;;;;;;2265355;61;20365;-65
2022/02/26 09:28:49;0.00;0.00;0.62;0.00;0.00;0.62;2.33;1.23;;;20.00;25.20;;;;;;2265727;61;20384;-69
2022/02/26 09:31:40;0.00;0.00;0.62;0.00;0.00;0.62;2.53;1.60;;;20.00;25.20;;;;;;2265788;61;20412;-66
2022/02/26 09:34:25;0.00;0.00;0.62;0.00;0.00;0.62;3.50;1.97;;;20.00;25.20;;;;;;2265161;61;20496;-68
2022/02/26 09:37:09;0.00;0.00;0.62;0.00;0.00;0.62;3.50;1.67;;;20.10;25.20;;;;;;2265851;61;20532;-67
2022/02/26 09:39:58;0.00;0.00;0.62;0.00;0.00;0.62;2.27;1.50;;;20.10;25.30;;;;;;2265421;61;20396;-67
2022/02/26 09:42:43;0.00;0.00;0.62;0.00;0.00;0.62;3.30;1.90;;;20.20;25.30;;;;;;2265265;61;20771;-69
2022/02/26 09:45:28;0.00;0.00;0.62;0.00;0.00;0.62;3.00;1.97;;;20.20;25.30;;;;;;2266055;61;20696;-68
2022/02/26 09:48:13;0.00;0.00;0.62;0.00;0.00;0.62;3.97;1.80;;;20.20;25.40;;;;;;2264806;61;20384;-68
2022/02/26 09:50:59;0.00;0.00;0.62;0.00;0.00;0.62;2.33;1.50;;;20.20;25.40;;;;;;2265747;61;20365;-68
2022/02/26 09:53:45;0.00;0.00;0.62;0.00;0.00;0.62;3.37;1.63;;;20.30;25.50;;;;;;2265999;61;20439;-68
2022/02/26 09:56:30;0.00;0.00;0.62;0.00;0.00;0.62;2.17;1.33;;;20.30;25.40;;;;;;2265317;61;20392;-66
2022/02/26 09:59:15;0.00;0.00;0.62;0.00;0.00;0.62;3.27;1.93;;;20.40;25.50;;;;;;2265823;61;20357;-69
2022/02/26 10:02:07;0.00;0.00;0.62;0.00;0.00;0.62;2.40;1.37;;;20.40;25.50;;;;;;2265462;61;20372;-68
2022/02/26 10:04:55;0.00;0.00;0.62;0.00;0.00;0.62;2.90;2.10;;;20.40;25.50;;;;;;2265457;61;20403;-69
2022/02/26 10:07:41;0.00;0.00;0.62;0.00;0.00;0.62;2.67;1.90;;;20.50;25.60;;;;;;2266039;61;20568;-66
2022/02/26 10:10:29;0.00;0.00;0.62;0.00;0.00;0.62;3.97;1.73;;;20.50;25.70;;;;;;2265309;61;20437;-67
2022/02/26 10:13:14;0.00;0.00;0.62;0.00;0.00;0.62;2.10;1.33;;;20.50;25.60;;;;;;2265490;61;20373;-68
2022/02/26 10:15:59;0.00;0.00;0.62;0.00;0.00;0.62;3.20;1.63;;;20.60;25.70;;;;;;2265914;61;20352;-66
2022/02/26 10:18:53;0.00;0.00;0.62;0.00;0.00;0.62;3.23;1.63;;;20.70;25.80;;;;;;2265335;61;20353;-69
2022/02/26 10:21:42;0.00;0.00;0.62;0.00;0.00;0.62;3.87;1.80;;;20.70;25.90;;;;;;2265698;61;20361;-64
2022/02/26 10:24:28;0.00;0.00;0.62;0.00;0.00;0.62;2.80;1.80;;;20.70;25.90;;;;;;2265104;61;20469;-69
2022/02/26 10:27:13;0.00;0.00;0.62;0.00;0.00;0.62;2.60;1.53;;;20.80;25.90;;;;;;2265426;61;20364;-67
2022/02/26 10:29:58;0.00;0.00;0.62;0.00;0.00;0.62;2.27;1.37;;;20.80;25.90;;;;;;2265831;61;20397;-66
2022/02/26 10:32:43;0.00;0.00;0.62;0.00;0.00;0.62;3.47;1.50;;;20.90;25.90;;;;;;2264993;61;20633;-70
2022/02/26 10:35:44;0.00;0.00;0.62;0.00;0.00;0.62;2.83;1.50;;;20.90;25.90;;;;;;2265513;61;20584;-67
2022/02/26 10:38:33;0.00;0.00;0.62;0.00;0.00;0.62;2.23;1.40;;;21.00;26.00;;;;;;2265552;61;20387;-66
2022/02/26 10:41:17;0.00;0.00;0.62;0.00;0.00;0.62;3.83;1.73;;;21.00;25.90;;;;;;2265035;61;20487;-69
2022/02/26 10:44:03;0.00;0.00;0.62;0.00;0.00;0.62;2.67;1.53;;;21.00;25.90;;;;;;2265734;61;20381;-68
2022/02/26 10:46:49;0.00;0.00;0.62;0.00;0.00;0.62;1.70;1.23;;;21.10;25.90;;;;;;2265143;61;20357;-68
2022/02/26 10:49:39;0.00;0.00;0.62;0.00;0.00;0.62;2.47;1.63;;;21.10;25.90;;;;;;2265058;61;20603;-66